sensor_id;sensor_type;location;lat;lon;timestamp;temperature;humidity
10233;DHT22;5161;48.174;11.756;2023-06-22T00:01:53;24.70;65.50
10233;DHT22;5161;48.174;11.756;2023-06-22T00:04:18;24.70;65.40
10233;DHT22;5161;48.174;11.756;2023-06-22T00:06:44;24.70;65.40
10233;DHT22;5161;48.174;11.756;2023-06-22T00:09:10;24.70;65.40
10233;DHT22;5161;48.174;11.756;2023-06-22T00:11:36;24.70;65.40
10233;DHT22;5161;48.174;11.756;2023-06-22T00:14:02;24.70;65.40
10233;DHT22;5161;48.174;11.756;2023-06-22T00:16:28;24.60;65.30
10233;DHT22;5161;48.174;11.756;2023-06-22T00:18:54;24.60;65.20
10233;DHT22;5161;48.174;11.756;2023-06-22T00:21:19;24.60;65.20
10233;DHT22;5161;48.174;11.756;2023-06-22T00:23:47;24.60;65.10
10233;DHT22;5161;48.174;11.756;2023-06-22T00:26:14;24.60;65.20
10233;DHT22;5161;48.174;11.756;2023-06-22T00:28:39;24.60;65.20
10233;DHT22;5161;48.174;11.756;2023-06-22T00:31:05;24.60;65.30
10233;DHT22;5161;48.174;11.756;2023-06-22T00:33:30;24.60;65.20
10233;DHT22;5161;48.174;11.756;2023-06-22T00:35:56;24.50;65.10
10233;DHT22;5161;48.174;11.756;2023-06-22T00:38:22;24.50;65.20
10233;DHT22;5161;48.174;11.756;2023-06-22T00:40:48;24.50;65.10
10233;DHT22;5161;48.174;11.756;2023-06-22T00:43:13;24.50;65.10
10233;DHT22;5161;48.174;11.756;2023-06-22T00:45:39;24.40;65.00
10233;DHT22;5161;48.174;11.756;2023-06-22T00:48:06;24.40;65.00
10233;DHT22;5161;48.174;11.756;2023-06-22T00:50:33;24.40;65.10
10233;DHT22;5161;48.174;11.756;2023-06-22T00:53:01;24.40;65.10
10233;DHT22;5161;48.174;11.756;2023-06-22T00:55:43;24.40;65.10
10233;DHT22;5161;48.174;11.756;2023-06-22T00:58:11;24.40;65.00
10233;DHT22;5161;48.174;11.756;2023-06-22T01:00:38;24.40;64.90
10233;DHT22;5161;48.174;11.756;2023-06-22T01:03:04;24.30;65.10
10233;DHT22;5161;48.174;11.756;2023-06-22T01:05:34;24.30;65.00
10233;DHT22;5161;48.174;11.756;2023-06-22T01:16:22;24.30;65.10
10233;DHT22;5161;48.174;11.756;2023-06-22T01:18:52;24.30;65.10
10233;DHT22;5161;48.174;11.756;2023-06-22T01:21:19;24.30;65.00
10233;DHT22;5161;48.174;11.756;2023-06-22T01:24:11;24.30;65.00
10233;DHT22;5161;48.174;11.756;2023-06-22T01:29:26;24.30;65.10
10233;DHT22;5161;48.174;11.756;2023-06-22T01:31:54;24.20;65.00
10233;DHT22;5161;48.174;11.756;2023-06-22T01:34:21;24.20;65.10
10233;DHT22;5161;48.174;11.756;2023-06-22T01:36:48;24.20;65.10
10233;DHT22;5161;48.174;11.756;2023-06-22T01:39:15;24.20;65.10
10233;DHT22;5161;48.174;11.756;2023-06-22T01:41:41;24.10;65.10
10233;DHT22;5161;48.174;11.756;2023-06-22T01:44:09;24.10;65.10
10233;DHT22;5161;48.174;11.756;2023-06-22T01:46:36;24.10;65.10
10233;DHT22;5161;48.174;11.756;2023-06-22T01:49:02;24.10;65.10
10233;DHT22;5161;48.174;11.756;2023-06-22T01:51:29;24.10;65.10
10233;DHT22;5161;48.174;11.756;2023-06-22T01:53:55;24.00;65.00
10233;DHT22;5161;48.174;11.756;2023-06-22T01:56:21;24.00;65.10
10233;DHT22;5161;48.174;11.756;2023-06-22T01:58:57;24.00;65.10
10233;DHT22;5161;48.174;11.756;2023-06-22T02:01:31;24.00;65.20
10233;DHT22;5161;48.174;11.756;2023-06-22T02:04:27;24.00;65.20
10233;DHT22;5161;48.174;11.756;2023-06-22T02:06:56;23.90;65.10
10233;DHT22;5161;48.174;11.756;2023-06-22T02:09:23;23.90;65.20
10233;DHT22;5161;48.174;11.756;2023-06-22T02:11:51;23.90;65.10
10233;DHT22;5161;48.174;11.756;2023-06-22T02:14:19;23.90;65.20
10233;DHT22;5161;48.174;11.756;2023-06-22T02:16:45;23.90;65.20
10233;DHT22;5161;48.174;11.756;2023-06-22T02:19:11;23.90;65.30
10233;DHT22;5161;48.174;11.756;2023-06-22T02:21:36;23.90;65.40
10233;DHT22;5161;48.174;11.756;2023-06-22T02:24:03;23.80;65.30
10233;DHT22;5161;48.174;11.756;2023-06-22T02:26:30;23.80;65.30
10233;DHT22;5161;48.174;11.756;2023-06-22T02:28:57;23.80;65.40
10233;DHT22;5161;48.174;11.756;2023-06-22T02:31:22;23.80;65.40
10233;DHT22;5161;48.174;11.756;2023-06-22T02:33:57;23.80;65.40
10233;DHT22;5161;48.174;11.756;2023-06-22T02:36:23;23.70;65.40
10233;DHT22;5161;48.174;11.756;2023-06-22T02:38:50;23.70;65.40
10233;DHT22;5161;48.174;11.756;2023-06-22T02:41:16;23.70;65.50
10233;DHT22;5161;48.174;11.756;2023-06-22T02:43:45;23.70;65.60
10233;DHT22;5161;48.174;11.756;2023-06-22T02:46:11;23.70;65.60
10233;DHT22;5161;48.174;11.756;2023-06-22T02:48:38;23.70;65.70
10233;DHT22;5161;48.174;11.756;2023-06-22T02:51:04;23.60;65.60
10233;DHT22;5161;48.174;11.756;2023-06-22T02:53:29;23.60;65.60
10233;DHT22;5161;48.174;11.756;2023-06-22T02:55:55;23.60;65.70
10233;DHT22;5161;48.174;11.756;2023-06-22T02:58:21;23.50;65.60
10233;DHT22;5161;48.174;11.756;2023-06-22T03:00:47;23.50;65.60
10233;DHT22;5161;48.174;11.756;2023-06-22T03:03:12;23.50;66.10
10233;DHT22;5161;48.174;11.756;2023-06-22T03:05:38;23.50;65.60
10233;DHT22;5161;48.174;11.756;2023-06-22T03:08:05;23.50;66.10
10233;DHT22;5161;48.174;11.756;2023-06-22T03:10:31;23.50;65.50
10233;DHT22;5161;48.174;11.756;2023-06-22T03:12:56;23.50;65.60
10233;DHT22;5161;48.174;11.756;2023-06-22T03:15:22;23.40;65.60
10233;DHT22;5161;48.174;11.756;2023-06-22T03:17:47;23.40;65.60
10233;DHT22;5161;48.174;11.756;2023-06-22T03:20:13;23.40;65.80
10233;DHT22;5161;48.174;11.756;2023-06-22T03:22:40;23.40;65.80
10233;DHT22;5161;48.174;11.756;2023-06-22T03:25:07;23.40;65.90
10233;DHT22;5161;48.174;11.756;2023-06-22T03:27:39;23.40;66.00
10233;DHT22;5161;48.174;11.756;2023-06-22T03:30:06;23.30;65.90
10233;DHT22;5161;48.174;11.756;2023-06-22T03:32:32;23.30;65.90
10233;DHT22;5161;48.174;11.756;2023-06-22T03:34:58;23.30;66.00
10233;DHT22;5161;48.174;11.756;2023-06-22T03:37:25;23.30;66.00
10233;DHT22;5161;48.174;11.756;2023-06-22T03:39:51;23.30;66.10
10233;DHT22;5161;48.174;11.756;2023-06-22T03:42:17;23.30;66.20
10233;DHT22;5161;48.174;11.756;2023-06-22T03:44:43;23.30;66.20
10233;DHT22;5161;48.174;11.756;2023-06-22T03:47:08;23.30;66.40
10233;DHT22;5161;48.174;11.756;2023-06-22T03:49:34;23.30;66.40
10233;DHT22;5161;48.174;11.756;2023-06-22T03:52:01;23.30;66.50
10233;DHT22;5161;48.174;11.756;2023-06-22T03:54:28;23.20;66.60
10233;DHT22;5161;48.174;11.756;2023-06-22T03:56:54;23.20;66.60
10233;DHT22;5161;48.174;11.756;2023-06-22T03:59:20;23.20;66.70
10233;DHT22;5161;48.174;11.756;2023-06-22T04:01:45;23.20;66.70
10233;DHT22;5161;48.174;11.756;2023-06-22T04:04:11;23.20;66.80
10233;DHT22;5161;48.174;11.756;2023-06-22T04:06:38;23.20;66.90
10233;DHT22;5161;48.174;11.756;2023-06-22T04:09:03;23.20;67.00
10233;DHT22;5161;48.174;11.756;2023-06-22T04:11:29;23.20;67.00
10233;DHT22;5161;48.174;11.756;2023-06-22T04:13:54;23.20;67.10
10233;DHT22;5161;48.174;11.756;2023-06-22T04:16:20;23.20;67.20
10233;DHT22;5161;48.174;11.756;2023-06-22T04:18:46;23.20;67.30
10233;DHT22;5161;48.174;11.756;2023-06-22T04:21:12;23.20;67.40
10233;DHT22;5161;48.174;11.756;2023-06-22T04:23:38;23.20;67.40
10233;DHT22;5161;48.174;11.756;2023-06-22T04:26:04;23.20;67.50
10233;DHT22;5161;48.174;11.756;2023-06-22T04:28:30;23.20;67.70
10233;DHT22;5161;48.174;11.756;2023-06-22T04:31:03;23.20;67.60
10233;DHT22;5161;48.174;11.756;2023-06-22T04:33:28;23.20;67.70
10233;DHT22;5161;48.174;11.756;2023-06-22T04:35:57;23.20;67.80
10233;DHT22;5161;48.174;11.756;2023-06-22T04:38:24;23.30;68.00
10233;DHT22;5161;48.174;11.756;2023-06-22T04:40:50;23.30;68.00
10233;DHT22;5161;48.174;11.756;2023-06-22T04:43:16;23.40;68.20
10233;DHT22;5161;48.174;11.756;2023-06-22T04:45:41;23.40;68.30
10233;DHT22;5161;48.174;11.756;2023-06-22T04:48:07;23.50;68.30
10233;DHT22;5161;48.174;11.756;2023-06-22T04:50:37;23.50;68.40
10233;DHT22;5161;48.174;11.756;2023-06-22T04:53:04;23.50;68.50
10233;DHT22;5161;48.174;11.756;2023-06-22T04:55:32;23.40;68.60
10233;DHT22;5161;48.174;11.756;2023-06-22T04:57:57;23.50;68.70
10233;DHT22;5161;48.174;11.756;2023-06-22T05:00:30;23.50;68.70
10233;DHT22;5161;48.174;11.756;2023-06-22T05:02:56;23.50;68.80
10233;DHT22;5161;48.174;11.756;2023-06-22T05:05:23;23.50;68.70
10233;DHT22;5161;48.174;11.756;2023-06-22T05:07:50;23.50;68.50
10233;DHT22;5161;48.174;11.756;2023-06-22T05:10:18;23.60;68.60
10233;DHT22;5161;48.174;11.756;2023-06-22T05:12:44;23.60;68.60
10233;DHT22;5161;48.174;11.756;2023-06-22T05:15:10;23.60;68.50
10233;DHT22;5161;48.174;11.756;2023-06-22T05:17:36;23.60;68.50
10233;DHT22;5161;48.174;11.756;2023-06-22T05:20:09;23.70;68.60
10233;DHT22;5161;48.174;11.756;2023-06-22T05:22:34;23.70;68.60
10233;DHT22;5161;48.174;11.756;2023-06-22T05:25:00;23.60;68.60
10233;DHT22;5161;48.174;11.756;2023-06-22T05:27:26;23.70;68.60
10233;DHT22;5161;48.174;11.756;2023-06-22T05:29:51;23.70;68.70
10233;DHT22;5161;48.174;11.756;2023-06-22T05:32:17;23.80;68.80
10233;DHT22;5161;48.174;11.756;2023-06-22T05:34:42;23.80;68.80
10233;DHT22;5161;48.174;11.756;2023-06-22T05:37:08;23.80;68.90
10233;DHT22;5161;48.174;11.756;2023-06-22T05:39:35;23.80;69.00
10233;DHT22;5161;48.174;11.756;2023-06-22T05:42:04;23.80;68.90
10233;DHT22;5161;48.174;11.756;2023-06-22T05:44:30;23.90;68.50
10233;DHT22;5161;48.174;11.756;2023-06-22T05:46:55;23.90;68.60
10233;DHT22;5161;48.174;11.756;2023-06-22T05:49:21;23.90;68.40
10233;DHT22;5161;48.174;11.756;2023-06-22T05:51:47;23.90;68.60
10233;DHT22;5161;48.174;11.756;2023-06-22T05:54:13;23.90;68.70
10233;DHT22;5161;48.174;11.756;2023-06-22T05:56:41;24.00;68.40
10233;DHT22;5161;48.174;11.756;2023-06-22T05:59:06;24.00;68.50
10233;DHT22;5161;48.174;11.756;2023-06-22T06:01:32;24.10;68.60
10233;DHT22;5161;48.174;11.756;2023-06-22T06:04:02;24.10;68.20
10233;DHT22;5161;48.174;11.756;2023-06-22T06:06:29;24.00;68.40
10233;DHT22;5161;48.174;11.756;2023-06-22T06:08:55;23.90;68.20
10233;DHT22;5161;48.174;11.756;2023-06-22T06:11:21;24.00;68.40
10233;DHT22;5161;48.174;11.756;2023-06-22T06:13:47;24.10;68.50
10233;DHT22;5161;48.174;11.756;2023-06-22T06:16:12;24.10;68.50
10233;DHT22;5161;48.174;11.756;2023-06-22T06:18:38;24.20;68.70
10233;DHT22;5161;48.174;11.756;2023-06-22T06:21:03;24.20;68.50
10233;DHT22;5161;48.174;11.756;2023-06-22T06:23:29;24.10;68.20
10233;DHT22;5161;48.174;11.756;2023-06-22T06:25:55;24.10;68.80
10233;DHT22;5161;48.174;11.756;2023-06-22T06:28:21;24.10;69.00
10233;DHT22;5161;48.174;11.756;2023-06-22T06:30:47;24.10;68.90
10233;DHT22;5161;48.174;11.756;2023-06-22T06:33:13;24.20;69.00
10233;DHT22;5161;48.174;11.756;2023-06-22T06:35:38;24.20;69.10
10233;DHT22;5161;48.174;11.756;2023-06-22T06:38:04;24.20;69.20
10233;DHT22;5161;48.174;11.756;2023-06-22T06:40:29;24.30;69.30
10233;DHT22;5161;48.174;11.756;2023-06-22T06:42:55;24.30;69.20
10233;DHT22;5161;48.174;11.756;2023-06-22T06:45:23;24.30;69.20
10233;DHT22;5161;48.174;11.756;2023-06-22T06:47:49;24.40;69.50
10233;DHT22;5161;48.174;11.756;2023-06-22T06:50:16;24.40;69.40
10233;DHT22;5161;48.174;11.756;2023-06-22T06:52:42;24.40;69.50
10233;DHT22;5161;48.174;11.756;2023-06-22T06:55:08;24.30;69.70
10233;DHT22;5161;48.174;11.756;2023-06-22T06:57:40;24.40;69.90
10233;DHT22;5161;48.174;11.756;2023-06-22T07:00:07;24.50;69.90
10233;DHT22;5161;48.174;11.756;2023-06-22T07:02:41;24.60;70.00
10233;DHT22;5161;48.174;11.756;2023-06-22T07:05:07;24.60;69.70
10233;DHT22;5161;48.174;11.756;2023-06-22T07:07:33;24.60;69.90
10233;DHT22;5161;48.174;11.756;2023-06-22T07:09:59;24.60;69.90
10233;DHT22;5161;48.174;11.756;2023-06-22T07:12:24;24.60;69.70
10233;DHT22;5161;48.174;11.756;2023-06-22T07:14:51;24.60;69.90
10233;DHT22;5161;48.174;11.756;2023-06-22T07:17:16;24.70;70.00
10233;DHT22;5161;48.174;11.756;2023-06-22T07:19:42;24.80;70.00
10233;DHT22;5161;48.174;11.756;2023-06-22T07:22:08;24.70;70.30
10233;DHT22;5161;48.174;11.756;2023-06-22T07:24:33;24.80;70.10
10233;DHT22;5161;48.174;11.756;2023-06-22T07:26:59;24.80;69.80
10233;DHT22;5161;48.174;11.756;2023-06-22T07:29:25;24.80;69.90
10233;DHT22;5161;48.174;11.756;2023-06-22T07:31:52;24.90;70.10
10233;DHT22;5161;48.174;11.756;2023-06-22T07:34:17;24.90;69.60
10233;DHT22;5161;48.174;11.756;2023-06-22T07:36:44;24.90;70.00
10233;DHT22;5161;48.174;11.756;2023-06-22T07:39:09;24.90;70.20
10233;DHT22;5161;48.174;11.756;2023-06-22T07:41:35;24.90;70.10
10233;DHT22;5161;48.174;11.756;2023-06-22T07:44:02;24.90;70.20
10233;DHT22;5161;48.174;11.756;2023-06-22T07:46:29;24.90;69.40
10233;DHT22;5161;48.174;11.756;2023-06-22T07:48:58;25.00;70.20
10233;DHT22;5161;48.174;11.756;2023-06-22T07:51:25;25.00;70.10
10233;DHT22;5161;48.174;11.756;2023-06-22T07:53:50;25.00;69.80
10233;DHT22;5161;48.174;11.756;2023-06-22T07:56:16;25.00;70.00
10233;DHT22;5161;48.174;11.756;2023-06-22T07:58:45;25.10;70.00
10233;DHT22;5161;48.174;11.756;2023-06-22T08:01:12;25.10;69.80
10233;DHT22;5161;48.174;11.756;2023-06-22T08:03:37;25.10;69.90
10233;DHT22;5161;48.174;11.756;2023-06-22T08:06:03;25.20;70.20
10233;DHT22;5161;48.174;11.756;2023-06-22T08:08:29;25.20;70.00
10233;DHT22;5161;48.174;11.756;2023-06-22T08:10:54;25.30;69.90
10233;DHT22;5161;48.174;11.756;2023-06-22T08:13:20;25.30;69.90
10233;DHT22;5161;48.174;11.756;2023-06-22T08:15:46;25.30;69.50
10233;DHT22;5161;48.174;11.756;2023-06-22T08:18:11;25.40;69.90
10233;DHT22;5161;48.174;11.756;2023-06-22T08:20:37;25.40;70.00
10233;DHT22;5161;48.174;11.756;2023-06-22T08:23:02;25.50;69.60
10233;DHT22;5161;48.174;11.756;2023-06-22T08:25:32;25.50;69.70
10233;DHT22;5161;48.174;11.756;2023-06-22T08:27:58;25.50;69.50
10233;DHT22;5161;48.174;11.756;2023-06-22T08:30:24;25.60;69.80
10233;DHT22;5161;48.174;11.756;2023-06-22T08:32:49;25.70;69.40
10233;DHT22;5161;48.174;11.756;2023-06-22T08:35:15;25.70;69.40
10233;DHT22;5161;48.174;11.756;2023-06-22T08:37:41;25.80;69.30
10233;DHT22;5161;48.174;11.756;2023-06-22T08:40:08;25.80;69.20
10233;DHT22;5161;48.174;11.756;2023-06-22T08:42:35;25.80;69.50
10233;DHT22;5161;48.174;11.756;2023-06-22T08:45:01;25.90;70.10
10233;DHT22;5161;48.174;11.756;2023-06-22T08:47:30;25.90;68.50
10233;DHT22;5161;48.174;11.756;2023-06-22T08:49:55;26.00;69.30
10233;DHT22;5161;48.174;11.756;2023-06-22T08:52:21;26.00;68.80
10233;DHT22;5161;48.174;11.756;2023-06-22T08:54:48;26.00;68.40
10233;DHT22;5161;48.174;11.756;2023-06-22T08:57:14;26.00;68.70
10233;DHT22;5161;48.174;11.756;2023-06-22T08:59:40;26.00;68.40
10233;DHT22;5161;48.174;11.756;2023-06-22T09:02:06;26.00;68.80
10233;DHT22;5161;48.174;11.756;2023-06-22T09:04:31;26.10;68.60
10233;DHT22;5161;48.174;11.756;2023-06-22T09:07:00;26.10;68.70
10233;DHT22;5161;48.174;11.756;2023-06-22T09:09:26;26.10;69.00
10233;DHT22;5161;48.174;11.756;2023-06-22T09:11:51;26.10;69.00
10233;DHT22;5161;48.174;11.756;2023-06-22T09:14:17;26.20;69.20
10233;DHT22;5161;48.174;11.756;2023-06-22T09:16:42;26.20;68.80
10233;DHT22;5161;48.174;11.756;2023-06-22T09:19:08;26.30;68.70
10233;DHT22;5161;48.174;11.756;2023-06-22T09:21:34;26.30;69.10
10233;DHT22;5161;48.174;11.756;2023-06-22T09:23:59;26.30;69.00
10233;DHT22;5161;48.174;11.756;2023-06-22T09:26:25;26.40;68.80
10233;DHT22;5161;48.174;11.756;2023-06-22T09:28:50;26.50;68.50
10233;DHT22;5161;48.174;11.756;2023-06-22T09:31:16;26.50;69.10
10233;DHT22;5161;48.174;11.756;2023-06-22T09:33:42;26.60;68.50
10233;DHT22;5161;48.174;11.756;2023-06-22T09:36:08;26.60;68.60
10233;DHT22;5161;48.174;11.756;2023-06-22T09:38:37;26.70;68.70
10233;DHT22;5161;48.174;11.756;2023-06-22T09:41:03;26.70;69.00
10233;DHT22;5161;48.174;11.756;2023-06-22T09:43:29;26.70;69.10
10233;DHT22;5161;48.174;11.756;2023-06-22T09:45:55;26.70;68.90
10233;DHT22;5161;48.174;11.756;2023-06-22T09:48:20;26.80;68.60
10233;DHT22;5161;48.174;11.756;2023-06-22T09:50:46;26.80;68.80
10233;DHT22;5161;48.174;11.756;2023-06-22T09:53:11;26.80;68.40
10233;DHT22;5161;48.174;11.756;2023-06-22T09:55:37;26.90;69.10
10233;DHT22;5161;48.174;11.756;2023-06-22T09:58:03;26.90;68.60
10233;DHT22;5161;48.174;11.756;2023-06-22T10:00:28;27.00;68.90
10233;DHT22;5161;48.174;11.756;2023-06-22T10:02:54;27.00;68.90
10233;DHT22;5161;48.174;11.756;2023-06-22T10:05:21;27.10;69.10
10233;DHT22;5161;48.174;11.756;2023-06-22T10:07:47;27.10;68.90
10233;DHT22;5161;48.174;11.756;2023-06-22T10:10:13;27.10;69.00
10233;DHT22;5161;48.174;11.756;2023-06-22T10:12:42;27.20;68.80
10233;DHT22;5161;48.174;11.756;2023-06-22T10:15:08;27.20;68.90
10233;DHT22;5161;48.174;11.756;2023-06-22T10:17:34;27.30;69.00
10233;DHT22;5161;48.174;11.756;2023-06-22T10:20:00;27.30;68.90
10233;DHT22;5161;48.174;11.756;2023-06-22T10:22:30;27.40;69.20
10233;DHT22;5161;48.174;11.756;2023-06-22T10:24:56;27.60;68.90
10233;DHT22;5161;48.174;11.756;2023-06-22T10:27:21;27.60;68.50
10233;DHT22;5161;48.174;11.756;2023-06-22T10:29:47;27.70;68.20
10233;DHT22;5161;48.174;11.756;2023-06-22T10:32:12;27.70;68.50
10233;DHT22;5161;48.174;11.756;2023-06-22T10:34:38;27.70;68.00
10233;DHT22;5161;48.174;11.756;2023-06-22T10:37:04;27.80;68.20
10233;DHT22;5161;48.174;11.756;2023-06-22T10:39:29;27.70;68.00
10233;DHT22;5161;48.174;11.756;2023-06-22T10:41:55;27.80;68.30
10233;DHT22;5161;48.174;11.756;2023-06-22T10:44:21;27.80;67.90
10233;DHT22;5161;48.174;11.756;2023-06-22T10:46:47;27.80;68.00
10233;DHT22;5161;48.174;11.756;2023-06-22T10:49:12;27.90;68.20
10233;DHT22;5161;48.174;11.756;2023-06-22T10:51:38;28.10;67.40
10233;DHT22;5161;48.174;11.756;2023-06-22T10:54:03;28.10;67.40
10233;DHT22;5161;48.174;11.756;2023-06-22T10:56:29;28.10;67.20
10233;DHT22;5161;48.174;11.756;2023-06-22T10:58:55;28.30;67.20
10233;DHT22;5161;48.174;11.756;2023-06-22T11:01:21;28.50;67.40
10233;DHT22;5161;48.174;11.756;2023-06-22T11:03:46;28.50;67.40
10233;DHT22;5161;48.174;11.756;2023-06-22T11:06:12;28.50;66.80
10233;DHT22;5161;48.174;11.756;2023-06-22T11:08:39;28.50;67.10
10233;DHT22;5161;48.174;11.756;2023-06-22T11:11:05;28.50;67.20
10233;DHT22;5161;48.174;11.756;2023-06-22T11:13:31;28.50;67.20
10233;DHT22;5161;48.174;11.756;2023-06-22T11:15:56;28.60;66.50
10233;DHT22;5161;48.174;11.756;2023-06-22T11:18:22;28.70;66.10
10233;DHT22;5161;48.174;11.756;2023-06-22T11:20:48;28.90;66.20
10233;DHT22;5161;48.174;11.756;2023-06-22T11:23:14;29.00;66.50
10233;DHT22;5161;48.174;11.756;2023-06-22T11:25:40;28.90;65.80
10233;DHT22;5161;48.174;11.756;2023-06-22T11:28:07;28.90;65.90
10233;DHT22;5161;48.174;11.756;2023-06-22T11:30:33;28.80;64.80
10233;DHT22;5161;48.174;11.756;2023-06-22T11:32:59;28.80;64.90
10233;DHT22;5161;48.174;11.756;2023-06-22T11:35:25;28.70;65.80
10233;DHT22;5161;48.174;11.756;2023-06-22T11:37:51;28.70;66.10
10233;DHT22;5161;48.174;11.756;2023-06-22T11:40:16;28.70;65.80
10233;DHT22;5161;48.174;11.756;2023-06-22T11:42:43;28.80;66.00
10233;DHT22;5161;48.174;11.756;2023-06-22T11:45:09;28.90;65.20
10233;DHT22;5161;48.174;11.756;2023-06-22T11:47:34;28.90;65.70
10233;DHT22;5161;48.174;11.756;2023-06-22T11:50:00;28.90;64.90
10233;DHT22;5161;48.174;11.756;2023-06-22T11:52:26;28.90;66.30
10233;DHT22;5161;48.174;11.756;2023-06-22T11:54:52;29.10;65.40
10233;DHT22;5161;48.174;11.756;2023-06-22T11:57:18;29.10;66.00
10233;DHT22;5161;48.174;11.756;2023-06-22T11:59:43;29.20;65.10
10233;DHT22;5161;48.174;11.756;2023-06-22T12:02:09;29.20;64.90
10233;DHT22;5161;48.174;11.756;2023-06-22T12:04:35;29.30;65.10
10233;DHT22;5161;48.174;11.756;2023-06-22T12:07:00;29.30;64.90
10233;DHT22;5161;48.174;11.756;2023-06-22T12:09:26;29.30;64.90
10233;DHT22;5161;48.174;11.756;2023-06-22T12:11:51;29.40;64.50
10233;DHT22;5161;48.174;11.756;2023-06-22T12:14:17;29.50;64.50
10233;DHT22;5161;48.174;11.756;2023-06-22T12:16:42;29.50;64.30
10233;DHT22;5161;48.174;11.756;2023-06-22T12:19:09;29.50;64.00
10233;DHT22;5161;48.174;11.756;2023-06-22T12:21:35;29.50;63.80
10233;DHT22;5161;48.174;11.756;2023-06-22T12:24:00;29.70;64.10
10233;DHT22;5161;48.174;11.756;2023-06-22T12:26:26;29.80;63.70
10233;DHT22;5161;48.174;11.756;2023-06-22T12:28:51;29.90;63.90
10233;DHT22;5161;48.174;11.756;2023-06-22T12:31:17;29.90;63.90
10233;DHT22;5161;48.174;11.756;2023-06-22T12:33:42;29.80;63.60
10233;DHT22;5161;48.174;11.756;2023-06-22T12:36:08;29.80;63.40
10233;DHT22;5161;48.174;11.756;2023-06-22T12:38:34;29.80;64.00
10233;DHT22;5161;48.174;11.756;2023-06-22T12:40:59;30.10;63.70
10233;DHT22;5161;48.174;11.756;2023-06-22T12:43:25;30.10;63.80
10233;DHT22;5161;48.174;11.756;2023-06-22T12:45:50;30.10;63.60
10233;DHT22;5161;48.174;11.756;2023-06-22T12:48:16;30.10;62.80
10233;DHT22;5161;48.174;11.756;2023-06-22T12:50:42;30.30;63.20
10233;DHT22;5161;48.174;11.756;2023-06-22T12:53:08;30.40;63.20
10233;DHT22;5161;48.174;11.756;2023-06-22T12:55:33;30.40;62.70
10233;DHT22;5161;48.174;11.756;2023-06-22T12:57:59;30.30;62.00
10233;DHT22;5161;48.174;11.756;2023-06-22T13:00:24;30.30;62.20
10233;DHT22;5161;48.174;11.756;2023-06-22T13:02:50;30.30;62.70
10233;DHT22;5161;48.174;11.756;2023-06-22T13:05:15;30.30;62.30
10233;DHT22;5161;48.174;11.756;2023-06-22T13:07:41;30.30;62.00
10233;DHT22;5161;48.174;11.756;2023-06-22T13:10:08;30.30;61.80
10233;DHT22;5161;48.174;11.756;2023-06-22T13:12:34;30.30;61.90
10233;DHT22;5161;48.174;11.756;2023-06-22T13:14:59;30.20;60.90
10233;DHT22;5161;48.174;11.756;2023-06-22T13:17:25;30.30;60.70
10233;DHT22;5161;48.174;11.756;2023-06-22T13:19:50;30.30;61.10
10233;DHT22;5161;48.174;11.756;2023-06-22T13:22:27;30.40;61.30
10233;DHT22;5161;48.174;11.756;2023-06-22T13:24:54;30.70;61.40
10233;DHT22;5161;48.174;11.756;2023-06-22T13:27:20;30.70;61.30
10233;DHT22;5161;48.174;11.756;2023-06-22T13:29:45;30.70;60.80
10233;DHT22;5161;48.174;11.756;2023-06-22T13:32:11;30.70;61.20
10233;DHT22;5161;48.174;11.756;2023-06-22T13:34:36;30.70;61.90
10233;DHT22;5161;48.174;11.756;2023-06-22T13:37:02;30.70;61.90
10233;DHT22;5161;48.174;11.756;2023-06-22T13:39:27;30.80;61.70
10233;DHT22;5161;48.174;11.756;2023-06-22T13:41:53;30.80;62.00
10233;DHT22;5161;48.174;11.756;2023-06-22T13:44:18;30.90;61.40
10233;DHT22;5161;48.174;11.756;2023-06-22T13:46:45;31.00;61.40
10233;DHT22;5161;48.174;11.756;2023-06-22T13:49:10;31.10;61.60
10233;DHT22;5161;48.174;11.756;2023-06-22T13:51:36;31.10;61.70
10233;DHT22;5161;48.174;11.756;2023-06-22T13:54:01;31.10;61.60
10233;DHT22;5161;48.174;11.756;2023-06-22T13:56:27;31.10;62.20
10233;DHT22;5161;48.174;11.756;2023-06-22T13:58:53;31.20;61.80
10233;DHT22;5161;48.174;11.756;2023-06-22T14:01:18;31.20;61.80
10233;DHT22;5161;48.174;11.756;2023-06-22T14:03:44;31.10;61.30
10233;DHT22;5161;48.174;11.756;2023-06-22T14:06:12;31.10;61.80
10233;DHT22;5161;48.174;11.756;2023-06-22T14:08:38;31.10;61.90
10233;DHT22;5161;48.174;11.756;2023-06-22T14:11:03;31.20;62.20
10233;DHT22;5161;48.174;11.756;2023-06-22T14:13:29;31.30;62.70
10233;DHT22;5161;48.174;11.756;2023-06-22T14:15:55;31.40;63.10
10233;DHT22;5161;48.174;11.756;2023-06-22T14:18:20;31.50;63.00
10233;DHT22;5161;48.174;11.756;2023-06-22T14:20:48;31.40;62.80
10233;DHT22;5161;48.174;11.756;2023-06-22T14:23:13;31.40;62.90
10233;DHT22;5161;48.174;11.756;2023-06-22T14:25:39;31.40;62.80
10233;DHT22;5161;48.174;11.756;2023-06-22T14:28:05;31.40;63.10
10233;DHT22;5161;48.174;11.756;2023-06-22T14:30:31;31.50;62.90
10233;DHT22;5161;48.174;11.756;2023-06-22T14:32:56;31.50;63.40
10233;DHT22;5161;48.174;11.756;2023-06-22T14:35:22;31.50;63.20
10233;DHT22;5161;48.174;11.756;2023-06-22T14:37:47;31.70;62.60
10233;DHT22;5161;48.174;11.756;2023-06-22T14:40:14;31.70;62.30
10233;DHT22;5161;48.174;11.756;2023-06-22T14:42:40;31.70;62.20
10233;DHT22;5161;48.174;11.756;2023-06-22T14:45:06;31.70;63.20
10233;DHT22;5161;48.174;11.756;2023-06-22T14:47:31;31.70;62.30
10233;DHT22;5161;48.174;11.756;2023-06-22T14:49:57;31.80;62.30
10233;DHT22;5161;48.174;11.756;2023-06-22T14:52:23;31.90;61.90
10233;DHT22;5161;48.174;11.756;2023-06-22T14:54:48;31.90;62.00
10233;DHT22;5161;48.174;11.756;2023-06-22T14:57:16;31.90;62.10
10233;DHT22;5161;48.174;11.756;2023-06-22T14:59:48;31.90;61.70
10233;DHT22;5161;48.174;11.756;2023-06-22T15:02:14;31.90;61.80
10233;DHT22;5161;48.174;11.756;2023-06-22T15:04:40;31.90;61.50
10233;DHT22;5161;48.174;11.756;2023-06-22T15:07:06;32.00;61.00
10233;DHT22;5161;48.174;11.756;2023-06-22T15:09:31;31.90;61.20
10233;DHT22;5161;48.174;11.756;2023-06-22T15:11:57;31.90;61.30
10233;DHT22;5161;48.174;11.756;2023-06-22T15:14:23;31.90;61.40
10233;DHT22;5161;48.174;11.756;2023-06-22T15:16:49;31.90;61.50
10233;DHT22;5161;48.174;11.756;2023-06-22T15:19:15;32.00;61.10
10233;DHT22;5161;48.174;11.756;2023-06-22T15:21:41;32.00;60.70
10233;DHT22;5161;48.174;11.756;2023-06-22T15:24:06;32.00;61.20
10233;DHT22;5161;48.174;11.756;2023-06-22T15:26:32;31.90;61.00
10233;DHT22;5161;48.174;11.756;2023-06-22T15:28:57;31.90;60.90
10233;DHT22;5161;48.174;11.756;2023-06-22T15:31:23;32.00;61.30
10233;DHT22;5161;48.174;11.756;2023-06-22T15:33:48;32.00;61.00
10233;DHT22;5161;48.174;11.756;2023-06-22T15:36:14;32.10;60.90